sensor_id;sensor_type;location;lat;lon;timestamp;P1;durP1;ratioP1;P2;durP2;ratioP2
30380;SDS011;17169;50.966;11.038;2024-01-06T00:02:49;6.65;;;1.75;;
30380;SDS011;17169;50.966;11.038;2024-01-06T00:05:53;8.07;;;2.35;;
30380;SDS011;17169;50.966;11.038;2024-01-06T00:08:55;6.38;;;1.60;;
30380;SDS011;17169;50.966;11.038;2024-01-06T00:11:58;6.22;;;2.65;;
30380;SDS011;17169;50.966;11.038;2024-01-06T00:15:02;5.18;;;1.90;;
30380;SDS011;17169;50.966;11.038;2024-01-06T00:18:05;4.88;;;1.60;;
30380;SDS011;17169;50.966;11.038;2024-01-06T00:21:09;4.93;;;1.50;;
30380;SDS011;17169;50.966;11.038;2024-01-06T00:24:11;4.63;;;1.70;;
30380;SDS011;17169;50.966;11.038;2024-01-06T00:27:14;2.38;;;1.45;;
30380;SDS011;17169;50.966;11.038;2024-01-06T00:30:16;7.40;;;1.88;;
30380;SDS011;17169;50.966;11.038;2024-01-06T00:33:19;4.60;;;1.42;;
30380;SDS011;17169;50.966;11.038;2024-01-06T00:36:23;4.75;;;1.65;;
30380;SDS011;17169;50.966;11.038;2024-01-06T00:39:25;5.32;;;2.17;;
30380;SDS011;17169;50.966;11.038;2024-01-06T00:42:27;4.32;;;2.13;;
30380;SDS011;17169;50.966;11.038;2024-01-06T00:45:30;7.50;;;1.80;;
30380;SDS011;17169;50.966;11.038;2024-01-06T00:48:32;6.25;;;2.50;;
30380;SDS011;17169;50.966;11.038;2024-01-06T00:51:36;7.85;;;2.80;;
30380;SDS011;17169;50.966;11.038;2024-01-06T00:54:38;6.00;;;2.67;;
30380;SDS011;17169;50.966;11.038;2024-01-06T00:57:40;7.97;;;3.00;;
30380;SDS011;17169;50.966;11.038;2024-01-06T01:00:43;7.65;;;2.63;;
30380;SDS011;17169;50.966;11.038;2024-01-06T01:03:45;8.48;;;2.63;;
30380;SDS011;17169;50.966;11.038;2024-01-06T01:06:49;6.13;;;2.40;;
30380;SDS011;17169;50.966;11.038;2024-01-06T01:09:51;14.73;;;6.45;;
30380;SDS011;17169;50.966;11.038;2024-01-06T01:12:53;10.98;;;3.67;;
30380;SDS011;17169;50.966;11.038;2024-01-06T01:15:56;6.75;;;2.38;;
30380;SDS011;17169;50.966;11.038;2024-01-06T01:18:58;13.45;;;5.85;;
30380;SDS011;17169;50.966;11.038;2024-01-06T01:22:03;9.18;;;2.50;;
30380;SDS011;17169;50.966;11.038;2024-01-06T01:25:06;7.72;;;2.70;;
30380;SDS011;17169;50.966;11.038;2024-01-06T01:28:09;5.53;;;2.65;;
30380;SDS011;17169;50.966;11.038;2024-01-06T01:31:11;7.63;;;2.75;;
30380;SDS011;17169;50.966;11.038;2024-01-06T01:34:14;6.65;;;2.38;;
30380;SDS011;17169;50.966;11.038;2024-01-06T01:37:18;4.75;;;2.47;;
30380;SDS011;17169;50.966;11.038;2024-01-06T01:40:20;5.03;;;2.53;;
30380;SDS011;17169;50.966;11.038;2024-01-06T01:43:22;11.23;;;3.20;;
30380;SDS011;17169;50.966;11.038;2024-01-06T01:46:25;7.53;;;3.05;;
30380;SDS011;17169;50.966;11.038;2024-01-06T01:49:28;8.05;;;3.13;;
30380;SDS011;17169;50.966;11.038;2024-01-06T01:52:32;11.05;;;3.40;;
30380;SDS011;17169;50.966;11.038;2024-01-06T01:55:34;6.30;;;2.42;;
30380;SDS011;17169;50.966;11.038;2024-01-06T01:58:36;7.03;;;2.53;;
30380;SDS011;17169;50.966;11.038;2024-01-06T02:01:39;10.90;;;2.40;;
30380;SDS011;17169;50.966;11.038;2024-01-06T02:04:41;7.03;;;2.83;;
30380;SDS011;17169;50.966;11.038;2024-01-06T02:07:46;4.25;;;2.25;;
30380;SDS011;17169;50.966;11.038;2024-01-06T02:10:53;5.10;;;1.73;;
30380;SDS011;17169;50.966;11.038;2024-01-06T02:13:56;10.60;;;2.53;;
30380;SDS011;17169;50.966;11.038;2024-01-06T02:16:59;3.80;;;2.00;;
30380;SDS011;17169;50.966;11.038;2024-01-06T02:20:01;10.57;;;1.88;;
30380;SDS011;17169;50.966;11.038;2024-01-06T02:23:05;5.47;;;1.95;;
30380;SDS011;17169;50.966;11.038;2024-01-06T02:26:07;8.25;;;2.67;;
30380;SDS011;17169;50.966;11.038;2024-01-06T02:29:10;5.78;;;2.10;;
30380;SDS011;17169;50.966;11.038;2024-01-06T02:32:13;3.25;;;1.75;;
30380;SDS011;17169;50.966;11.038;2024-01-06T02:35:15;4.90;;;1.95;;
30380;SDS011;17169;50.966;11.038;2024-01-06T02:38:19;3.67;;;1.70;;
30380;SDS011;17169;50.966;11.038;2024-01-06T02:41:21;6.22;;;1.95;;
30380;SDS011;17169;50.966;11.038;2024-01-06T02:44:24;5.07;;;2.35;;
30380;SDS011;17169;50.966;11.038;2024-01-06T02:47:26;6.25;;;2.17;;
30380;SDS011;17169;50.966;11.038;2024-01-06T02:50:28;5.15;;;1.80;;
30380;SDS011;17169;50.966;11.038;2024-01-06T02:53:32;2.70;;;1.48;;
30380;SDS011;17169;50.966;11.038;2024-01-06T02:56:34;4.90;;;2.42;;
30380;SDS011;17169;50.966;11.038;2024-01-06T02:59:38;7.25;;;3.20;;
30380;SDS011;17169;50.966;11.038;2024-01-06T03:02:41;16.15;;;4.03;;
30380;SDS011;17169;50.966;11.038;2024-01-06T03:05:43;9.73;;;3.38;;
30380;SDS011;17169;50.966;11.038;2024-01-06T03:08:49;7.10;;;2.80;;
30380;SDS011;17169;50.966;11.038;2024-01-06T03:11:51;8.55;;;2.22;;
30380;SDS011;17169;50.966;11.038;2024-01-06T03:14:53;9.88;;;2.03;;
30380;SDS011;17169;50.966;11.038;2024-01-06T03:17:56;5.05;;;1.85;;
30380;SDS011;17169;50.966;11.038;2024-01-06T03:20:58;7.35;;;2.03;;
30380;SDS011;17169;50.966;11.038;2024-01-06T03:24:02;5.28;;;2.20;;
30380;SDS011;17169;50.966;11.038;2024-01-06T03:27:06;3.97;;;1.80;;
30380;SDS011;17169;50.966;11.038;2024-01-06T03:30:10;3.42;;;1.63;;
30380;SDS011;17169;50.966;11.038;2024-01-06T03:33:13;5.43;;;1.85;;
30380;SDS011;17169;50.966;11.038;2024-01-06T03:36:15;5.40;;;1.80;;
30380;SDS011;17169;50.966;11.038;2024-01-06T03:39:19;5.22;;;1.42;;
30380;SDS011;17169;50.966;11.038;2024-01-06T03:42:22;4.15;;;1.60;;
30380;SDS011;17169;50.966;11.038;2024-01-06T03:45:24;5.57;;;1.42;;
30380;SDS011;17169;50.966;11.038;2024-01-06T03:48:26;2.80;;;1.30;;
30380;SDS011;17169;50.966;11.038;2024-01-06T03:51:29;4.22;;;1.83;;
30380;SDS011;17169;50.966;11.038;2024-01-06T03:54:32;8.88;;;1.67;;
30380;SDS011;17169;50.966;11.038;2024-01-06T03:57:35;7.63;;;1.42;;
30380;SDS011;17169;50.966;11.038;2024-01-06T04:00:37;4.25;;;1.10;;
30380;SDS011;17169;50.966;11.038;2024-01-06T04:03:39;3.65;;;1.10;;
30380;SDS011;17169;50.966;11.038;2024-01-06T04:06:42;7.60;;;1.60;;
30380;SDS011;17169;50.966;11.038;2024-01-06T04:09:45;5.28;;;1.02;;
30380;SDS011;17169;50.966;11.038;2024-01-06T04:12:48;2.25;;;1.20;;
30380;SDS011;17169;50.966;11.038;2024-01-06T04:15:50;5.03;;;1.35;;
30380;SDS011;17169;50.966;11.038;2024-01-06T04:18:52;4.25;;;1.13;;
30380;SDS011;17169;50.966;11.038;2024-01-06T04:21:55;5.40;;;1.50;;
30380;SDS011;17169;50.966;11.038;2024-01-06T04:24:59;5.25;;;1.40;;
30380;SDS011;17169;50.966;11.038;2024-01-06T04:28:01;3.47;;;1.50;;
30380;SDS011;17169;50.966;11.038;2024-01-06T04:31:03;5.72;;;1.60;;
30380;SDS011;17169;50.966;11.038;2024-01-06T04:34:06;3.47;;;1.35;;
30380;SDS011;17169;50.966;11.038;2024-01-06T04:37:08;6.07;;;1.42;;
30380;SDS011;17169;50.966;11.038;2024-01-06T04:40:12;5.85;;;1.20;;
30380;SDS011;17169;50.966;11.038;2024-01-06T04:43:15;2.80;;;1.37;;
30380;SDS011;17169;50.966;11.038;2024-01-06T04:46:17;3.03;;;1.30;;
30380;SDS011;17169;50.966;11.038;2024-01-06T04:49:19;5.55;;;1.30;;
30380;SDS011;17169;50.966;11.038;2024-01-06T04:52:22;3.53;;;1.20;;
30380;SDS011;17169;50.966;11.038;2024-01-06T04:55:25;3.35;;;1.40;;
30380;SDS011;17169;50.966;11.038;2024-01-06T04:58:28;2.80;;;1.10;;
30380;SDS011;17169;50.966;11.038;2024-01-06T05:01:30;5.30;;;1.35;;
30380;SDS011;17169;50.966;11.038;2024-01-06T05:04:33;3.80;;;1.45;;
30380;SDS011;17169;50.966;11.038;2024-01-06T05:07:35;6.88;;;1.38;;
30380;SDS011;17169;50.966;11.038;2024-01-06T05:10:39;4.75;;;1.50;;
30380;SDS011;17169;50.966;11.038;2024-01-06T05:13:41;4.90;;;1.58;;
30380;SDS011;17169;50.966;11.038;2024-01-06T05:16:43;5.05;;;1.35;;
30380;SDS011;17169;50.966;11.038;2024-01-06T05:19:46;3.53;;;1.23;;
30380;SDS011;17169;50.966;11.038;2024-01-06T05:22:49;6.95;;;1.20;;
30380;SDS011;17169;50.966;11.038;2024-01-06T05:25:52;4.55;;;1.05;;
30380;SDS011;17169;50.966;11.038;2024-01-06T05:28:55;5.78;;;1.67;;
30380;SDS011;17169;50.966;11.038;2024-01-06T05:31:57;3.65;;;1.30;;
30380;SDS011;17169;50.966;11.038;2024-01-06T05:34:59;7.40;;;1.73;;
30380;SDS011;17169;50.966;11.038;2024-01-06T05:38:02;3.63;;;1.27;;
30380;SDS011;17169;50.966;11.038;2024-01-06T05:41:06;6.65;;;1.48;;
30380;SDS011;17169;50.966;11.038;2024-01-06T05:44:08;6.95;;;2.20;;
30380;SDS011;17169;50.966;11.038;2024-01-06T05:47:11;5.47;;;1.45;;
30380;SDS011;17169;50.966;11.038;2024-01-06T05:50:14;4.15;;;1.30;;
30380;SDS011;17169;50.966;11.038;2024-01-06T05:53:17;5.82;;;1.45;;
30380;SDS011;17169;50.966;11.038;2024-01-06T05:56:24;3.22;;;1.33;;
30380;SDS011;17169;50.966;11.038;2024-01-06T05:59:27;3.80;;;1.40;;
30380;SDS011;17169;50.966;11.038;2024-01-06T06:02:29;5.28;;;1.77;;
30380;SDS011;17169;50.966;11.038;2024-01-06T06:05:32;4.72;;;1.70;;
30380;SDS011;17169;50.966;11.038;2024-01-06T06:08:34;3.65;;;1.45;;
30380;SDS011;17169;50.966;11.038;2024-01-06T06:11:38;5.15;;;1.50;;
30380;SDS011;17169;50.966;11.038;2024-01-06T06:14:40;12.90;;;1.73;;
30380;SDS011;17169;50.966;11.038;2024-01-06T06:17:43;4.68;;;1.65;;
30380;SDS011;17169;50.966;11.038;2024-01-06T06:20:46;5.07;;;1.65;;
30380;SDS011;17169;50.966;11.038;2024-01-06T06:23:48;6.40;;;1.30;;
30380;SDS011;17169;50.966;11.038;2024-01-06T06:26:52;2.97;;;1.40;;
30380;SDS011;17169;50.966;11.038;2024-01-06T06:29:54;2.92;;;1.50;;
30380;SDS011;17169;50.966;11.038;2024-01-06T06:32:57;3.05;;;1.48;;
30380;SDS011;17169;50.966;11.038;2024-01-06T06:36:00;6.03;;;1.50;;
30380;SDS011;17169;50.966;11.038;2024-01-06T06:39:03;6.50;;;1.55;;
30380;SDS011;17169;50.966;11.038;2024-01-06T06:42:07;2.72;;;1.40;;
30380;SDS011;17169;50.966;11.038;2024-01-06T06:45:09;6.18;;;1.92;;
30380;SDS011;17169;50.966;11.038;2024-01-06T06:48:12;4.90;;;1.90;;
30380;SDS011;17169;50.966;11.038;2024-01-06T06:51:15;5.80;;;2.10;;
30380;SDS011;17169;50.966;11.038;2024-01-06T06:54:17;10.45;;;2.58;;
30380;SDS011;17169;50.966;11.038;2024-01-06T06:57:21;6.60;;;2.65;;
30380;SDS011;17169;50.966;11.038;2024-01-06T07:00:24;9.63;;;1.92;;
30380;SDS011;17169;50.966;11.038;2024-01-06T07:03:27;71.82;;;32.78;;
30380;SDS011;17169;50.966;11.038;2024-01-06T07:06:29;6.57;;;3.08;;
30380;SDS011;17169;50.966;11.038;2024-01-06T07:09:32;8.82;;;2.92;;
30380;SDS011;17169;50.966;11.038;2024-01-06T07:12:35;13.27;;;6.75;;
30380;SDS011;17169;50.966;11.038;2024-01-06T07:15:38;11.40;;;3.97;;
30380;SDS011;17169;50.966;11.038;2024-01-06T07:18:40;4.97;;;2.50;;
30380;SDS011;17169;50.966;11.038;2024-01-06T07:21:43;5.65;;;2.80;;
30380;SDS011;17169;50.966;11.038;2024-01-06T07:24:45;4.78;;;2.40;;
30380;SDS011;17169;50.966;11.038;2024-01-06T07:27:49;7.22;;;2.70;;
30380;SDS011;17169;50.966;11.038;2024-01-06T07:30:51;7.68;;;2.50;;
30380;SDS011;17169;50.966;11.038;2024-01-06T07:33:54;7.57;;;2.30;;
30380;SDS011;17169;50.966;11.038;2024-01-06T07:36:56;4.55;;;2.15;;
30380;SDS011;17169;50.966;11.038;2024-01-06T07:39:59;6.28;;;2.40;;
30380;SDS011;17169;50.966;11.038;2024-01-06T07:43:03;7.95;;;2.90;;
30380;SDS011;17169;50.966;11.038;2024-01-06T07:46:06;6.97;;;2.83;;
30380;SDS011;17169;50.966;11.038;2024-01-06T07:49:10;5.47;;;2.08;;
30380;SDS011;17169;50.966;11.038;2024-01-06T07:52:12;10.43;;;3.58;;
30380;SDS011;17169;50.966;11.038;2024-01-06T07:55:15;5.97;;;2.50;;
30380;SDS011;17169;50.966;11.038;2024-01-06T07:58:19;5.57;;;2.92;;
30380;SDS011;17169;50.966;11.038;2024-01-06T08:01:22;6.07;;;2.92;;
30380;SDS011;17169;50.966;11.038;2024-01-06T08:04:24;7.68;;;2.60;;
30380;SDS011;17169;50.966;11.038;2024-01-06T08:07:27;4.82;;;2.47;;
30380;SDS011;17169;50.966;11.038;2024-01-06T08:10:29;4.57;;;2.13;;
30380;SDS011;17169;50.966;11.038;2024-01-06T08:13:33;3.58;;;2.35;;
30380;SDS011;17169;50.966;11.038;2024-01-06T08:16:35;10.98;;;2.80;;
30380;SDS011;17169;50.966;11.038;2024-01-06T08:19:37;8.65;;;2.70;;
30380;SDS011;17169;50.966;11.038;2024-01-06T08:22:40;7.20;;;2.92;;
30380;SDS011;17169;50.966;11.038;2024-01-06T08:25:42;8.43;;;3.50;;
30380;SDS011;17169;50.966;11.038;2024-01-06T08:28:47;11.98;;;4.85;;
30380;SDS011;17169;50.966;11.038;2024-01-06T08:31:50;16.02;;;3.97;;
30380;SDS011;17169;50.966;11.038;2024-01-06T08:34:52;6.13;;;3.22;;
30380;SDS011;17169;50.966;11.038;2024-01-06T08:37:55;7.90;;;3.78;;
30380;SDS011;17169;50.966;11.038;2024-01-06T08:40:57;7.28;;;3.38;;
30380;SDS011;17169;50.966;11.038;2024-01-06T08:44:01;7.35;;;3.08;;
30380;SDS011;17169;50.966;11.038;2024-01-06T08:47:03;8.15;;;3.00;;
30380;SDS011;17169;50.966;11.038;2024-01-06T08:50:07;6.25;;;2.80;;
30380;SDS011;17169;50.966;11.038;2024-01-06T08:53:09;7.22;;;3.28;;
30380;SDS011;17169;50.966;11.038;2024-01-06T08:56:12;5.35;;;2.75;;
30380;SDS011;17169;50.966;11.038;2024-01-06T08:59:15;9.38;;;2.78;;
30380;SDS011;17169;50.966;11.038;2024-01-06T09:02:18;5.00;;;2.70;;
30380;SDS011;17169;50.966;11.038;2024-01-06T09:05:20;9.50;;;3.05;;
30380;SDS011;17169;50.966;11.038;2024-01-06T09:08:22;5.13;;;2.50;;
30380;SDS011;17169;50.966;11.038;2024-01-06T09:11:25;7.40;;;2.60;;
30380;SDS011;17169;50.966;11.038;2024-01-06T09:14:29;8.73;;;2.88;;
30380;SDS011;17169;50.966;11.038;2024-01-06T09:17:31;6.10;;;2.75;;
30380;SDS011;17169;50.966;11.038;2024-01-06T09:20:35;7.20;;;2.88;;
30380;SDS011;17169;50.966;11.038;2024-01-06T09:23:39;9.70;;;3.10;;
30380;SDS011;17169;50.966;11.038;2024-01-06T09:26:42;7.15;;;3.33;;
30380;SDS011;17169;50.966;11.038;2024-01-06T09:29:46;7.13;;;3.13;;
30380;SDS011;17169;50.966;11.038;2024-01-06T09:32:48;9.82;;;4.00;;
30380;SDS011;17169;50.966;11.038;2024-01-06T09:35:51;10.90;;;4.28;;
30380;SDS011;17169;50.966;11.038;2024-01-06T09:38:53;7.47;;;3.63;;
30380;SDS011;17169;50.966;11.038;2024-01-06T09:41:55;9.73;;;4.22;;
30380;SDS011;17169;50.966;11.038;2024-01-06T09:44:59;8.55;;;4.28;;
30380;SDS011;17169;50.966;11.038;2024-01-06T09:48:02;10.85;;;4.88;;
30380;SDS011;17169;50.966;11.038;2024-01-06T09:51:12;8.10;;;4.35;;
30380;SDS011;17169;50.966;11.038;2024-01-06T09:54:15;6.55;;;3.83;;
30380;SDS011;17169;50.966;11.038;2024-01-06T09:57:18;8.95;;;4.00;;
30380;SDS011;17169;50.966;11.038;2024-01-06T10:00:22;11.07;;;4.15;;
30380;SDS011;17169;50.966;11.038;2024-01-06T10:03:24;8.90;;;3.90;;
30380;SDS011;17169;50.966;11.038;2024-01-06T10:06:27;9.93;;;4.00;;
30380;SDS011;17169;50.966;11.038;2024-01-06T10:09:29;11.23;;;3.97;;
30380;SDS011;17169;50.966;11.038;2024-01-06T10:12:32;7.90;;;3.72;;
30380;SDS011;17169;50.966;11.038;2024-01-06T10:15:36;7.78;;;4.43;;
30380;SDS011;17169;50.966;11.038;2024-01-06T10:18:38;14.63;;;5.75;;
30380;SDS011;17169;50.966;11.038;2024-01-06T10:21:41;9.77;;;4.55;;
30380;SDS011;17169;50.966;11.038;2024-01-06T10:24:43;9.15;;;4.28;;
30380;SDS011;17169;50.966;11.038;2024-01-06T10:27:46;10.32;;;4.63;;
30380;SDS011;17169;50.966;11.038;2024-01-06T10:30:49;10.77;;;4.32;;
30380;SDS011;17169;50.966;11.038;2024-01-06T10:33:54;7.57;;;3.83;;
30380;SDS011;17169;50.966;11.038;2024-01-06T10:36:56;9.90;;;5.22;;
30380;SDS011;17169;50.966;11.038;2024-01-06T10:40:08;10.85;;;4.25;;
30380;SDS011;17169;50.966;11.038;2024-01-06T10:43:12;9.88;;;4.05;;
30380;SDS011;17169;50.966;11.038;2024-01-06T10:46:16;11.80;;;4.38;;
30380;SDS011;17169;50.966;11.038;2024-01-06T10:49:21;12.25;;;4.43;;
30380;SDS011;17169;50.966;11.038;2024-01-06T10:52:25;8.77;;;4.13;;
30380;SDS011;17169;50.966;11.038;2024-01-06T10:55:29;11.63;;;4.63;;
30380;SDS011;17169;50.966;11.038;2024-01-06T10:58:32;7.15;;;2.83;;
30380;SDS011;17169;50.966;11.038;2024-01-06T11:01:38;8.32;;;2.70;;
30380;SDS011;17169;50.966;11.038;2024-01-06T11:04:41;8.63;;;2.47;;
30380;SDS011;17169;50.966;11.038;2024-01-06T11:07:44;5.82;;;2.13;;
30380;SDS011;17169;50.966;11.038;2024-01-06T11:10:47;3.92;;;2.05;;
30380;SDS011;17169;50.966;11.038;2024-01-06T11:13:50;7.10;;;2.03;;
30380;SDS011;17169;50.966;11.038;2024-01-06T11:16:54;5.00;;;2.25;;
30380;SDS011;17169;50.966;11.038;2024-01-06T11:20:04;4.30;;;2.45;;
30380;SDS011;17169;50.966;11.038;2024-01-06T11:23:19;5.85;;;2.50;;
30380;SDS011;17169;50.966;11.038;2024-01-06T11:26:22;10.63;;;2.88;;
30380;SDS011;17169;50.966;11.038;2024-01-06T11:29:24;7.32;;;2.50;;
30380;SDS011;17169;50.966;11.038;2024-01-06T11:32:28;8.23;;;2.53;;
30380;SDS011;17169;50.966;11.038;2024-01-06T11:35:34;6.28;;;2.13;;
30380;SDS011;17169;50.966;11.038;2024-01-06T11:38:41;6.65;;;2.08;;
30380;SDS011;17169;50.966;11.038;2024-01-06T11:41:49;8.20;;;1.95;;
30380;SDS011;17169;50.966;11.038;2024-01-06T11:44:52;5.05;;;2.50;;
30380;SDS011;17169;50.966;11.038;2024-01-06T11:48:04;9.02;;;2.38;;
30380;SDS011;17169;50.966;11.038;2024-01-06T11:51:08;7.22;;;2.50;;
30380;SDS011;17169;50.966;11.038;2024-01-06T11:54:10;11.13;;;3.30;;
30380;SDS011;17169;50.966;11.038;2024-01-06T11:57:13;6.35;;;3.15;;
30380;SDS011;17169;50.966;11.038;2024-01-06T12:00:16;5.85;;;2.60;;
30380;SDS011;17169;50.966;11.038;2024-01-06T12:03:20;7.97;;;2.80;;
30380;SDS011;17169;50.966;11.038;2024-01-06T12:06:23;4.85;;;2.28;;
30380;SDS011;17169;50.966;11.038;2024-01-06T12:09:26;5.63;;;2.60;;
30380;SDS011;17169;50.966;11.038;2024-01-06T12:12:28;4.07;;;2.08;;
30380;SDS011;17169;50.966;11.038;2024-01-06T12:15:31;6.80;;;2.35;;
30380;SDS011;17169;50.966;11.038;2024-01-06T12:18:35;5.50;;;2.35;;
30380;SDS011;17169;50.966;11.038;2024-01-06T12:21:38;6.73;;;2.50;;
30380;SDS011;17169;50.966;11.038;2024-01-06T12:24:41;7.78;;;2.42;;
30380;SDS011;17169;50.966;11.038;2024-01-06T12:27:44;6.03;;;2.25;;
30380;SDS011;17169;50.966;11.038;2024-01-06T12:30:47;5.90;;;2.35;;
30380;SDS011;17169;50.966;11.038;2024-01-06T12:33:51;6.70;;;2.65;;
30380;SDS011;17169;50.966;11.038;2024-01-06T12:36:54;6.95;;;2.75;;
30380;SDS011;17169;50.966;11.038;2024-01-06T12:39:56;6.25;;;2.67;;
30380;SDS011;17169;50.966;11.038;2024-01-06T12:42:59;6.45;;;3.20;;
30380;SDS011;17169;50.966;11.038;2024-01-06T12:46:01;8.45;;;2.78;;
30380;SDS011;17169;50.966;11.038;2024-01-06T12:49:05;5.32;;;3.00;;
30380;SDS011;17169;50.966;11.038;2024-01-06T12:52:07;7.53;;;3.17;;
30380;SDS011;17169;50.966;11.038;2024-01-06T12:55:10;5.60;;;3.00;;
30380;SDS011;17169;50.966;11.038;2024-01-06T12:58:12;9.10;;;3.60;;
30380;SDS011;17169;50.966;11.038;2024-01-06T13:01:15;12.50;;;3.28;;
30380;SDS011;17169;50.966;11.038;2024-01-06T13:04:19;9.32;;;3.00;;
30380;SDS011;17169;50.966;11.038;2024-01-06T13:07:21;6.22;;;3.38;;
30380;SDS011;17169;50.966;11.038;2024-01-06T13:10:24;7.90;;;3.08;;
30380;SDS011;17169;50.966;11.038;2024-01-06T13:13:29;7.63;;;3.30;;
30380;SDS011;17169;50.966;11.038;2024-01-06T13:16:32;8.13;;;3.20;;
30380;SDS011;17169;50.966;11.038;2024-01-06T13:19:35;9.95;;;3.22;;
30380;SDS011;17169;50.966;11.038;2024-01-06T13:22:38;10.80;;;3.05;;
30380;SDS011;17169;50.966;11.038;2024-01-06T13:25:41;4.85;;;2.53;;
30380;SDS011;17169;50.966;11.038;2024-01-06T13:28:44;7.47;;;2.97;;
30380;SDS011;17169;50.966;11.038;2024-01-06T13:31:46;6.85;;;2.80;;
30380;SDS011;17169;50.966;11.038;2024-01-06T13:34:50;9.00;;;3.08;;
30380;SDS011;17169;50.966;11.038;2024-01-06T13:37:55;7.70;;;3.42;;
30380;SDS011;17169;50.966;11.038;2024-01-06T13:40:57;6.13;;;2.45;;
30380;SDS011;17169;50.966;11.038;2024-01-06T13:44:00;8.00;;;3.17;;
30380;SDS011;17169;50.966;11.038;2024-01-06T13:47:02;5.95;;;2.92;;
30380;SDS011;17169;50.966;11.038;2024-01-06T13:50:07;6.47;;;3.33;;
30380;SDS011;17169;50.966;11.038;2024-01-06T13:53:10;7.75;;;3.03;;
30380;SDS011;17169;50.966;11.038;2024-01-06T13:56:12;12.00;;;5.13;;
30380;SDS011;17169;50.966;11.038;2024-01-06T13:59:15;6.18;;;3.13;;
30380;SDS011;17169;50.966;11.038;2024-01-06T14:02:17;10.68;;;3.63;;
30380;SDS011;17169;50.966;11.038;2024-01-06T14:05:21;8.07;;;4.35;;
30380;SDS011;17169;50.966;11.038;2024-01-06T14:08:23;10.05;;;2.85;;
30380;SDS011;17169;50.966;11.038;2024-01-06T14:11:26;6.65;;;3.20;;
30380;SDS011;17169;50.966;11.038;2024-01-06T14:14:28;6.47;;;3.28;;
30380;SDS011;17169;50.966;11.038;2024-01-06T14:17:30;10.93;;;4.97;;
30380;SDS011;17169;50.966;11.038;2024-01-06T14:20:34;8.55;;;3.83;;
30380;SDS011;17169;50.966;11.038;2024-01-06T14:23:38;7.25;;;3.47;;
30380;SDS011;17169;50.966;11.038;2024-01-06T14:26:41;7.80;;;3.75;;
30380;SDS011;17169;50.966;11.038;2024-01-06T14:29:43;7.03;;;3.40;;
30380;SDS011;17169;50.966;11.038;2024-01-06T14:32:45;7.15;;;3.55;;
30380;SDS011;17169;50.966;11.038;2024-01-06T14:35:49;8.07;;;3.63;;
30380;SDS011;17169;50.966;11.038;2024-01-06T14:38:52;14.93;;;3.30;;
30380;SDS011;17169;50.966;11.038;2024-01-06T14:41:55;6.85;;;3.17;;
30380;SDS011;17169;50.966;11.038;2024-01-06T14:44:57;8.68;;;3.20;;
30380;SDS011;17169;50.966;11.038;2024-01-06T14:48:00;6.93;;;2.92;;
30380;SDS011;17169;50.966;11.038;2024-01-06T14:51:04;8.90;;;2.97;;
30380;SDS011;17169;50.966;11.038;2024-01-06T14:54:06;7.63;;;4.22;;
30380;SDS011;17169;50.966;11.038;2024-01-06T14:57:09;6.07;;;3.17;;
30380;SDS011;17169;50.966;11.038;2024-01-06T15:00:11;9.95;;;3.33;;
30380;SDS011;17169;50.966;11.038;2024-01-06T15:03:14;10.18;;;4.40;;
30380;SDS011;17169;50.966;11.038;2024-01-06T15:06:19;13.50;;;4.35;;
30380;SDS011;17169;50.966;11.038;2024-01-06T15:09:21;10.73;;;4.13;;
30380;SDS011;17169;50.966;11.038;2024-01-06T15:12:26;7.65;;;4.47;;
30380;SDS011;17169;50.966;11.038;2024-01-06T15:15:28;7.40;;;3.75;;
30380;SDS011;17169;50.966;11.038;2024-01-06T15:18:31;13.05;;;4.47;;
30380;SDS011;17169;50.966;11.038;2024-01-06T15:21:34;7.63;;;4.18;;
30380;SDS011;17169;50.966;11.038;2024-01-06T15:24:37;8.00;;;4.07;;
30380;SDS011;17169;50.966;11.038;2024-01-06T15:27:40;11.38;;;5.28;;
30380;SDS011;17169;50.966;11.038;2024-01-06T15:30:42;12.70;;;4.80;;
30380;SDS011;17169;50.966;11.038;2024-01-06T15:33:45;8.02;;;3.53;;
30380;SDS011;17169;50.966;11.038;2024-01-06T15:36:49;7.93;;;3.95;;
30380;SDS011;17169;50.966;11.038;2024-01-06T15:39:52;10.07;;;4.68;;
30380;SDS011;17169;50.966;11.038;2024-01-06T15:42:54;13.88;;;5.65;;
30380;SDS011;17169;50.966;11.038;2024-01-06T15:45:56;12.25;;;5.20;;
30380;SDS011;17169;50.966;11.038;2024-01-06T15:48:59;8.65;;;4.70;;
30380;SDS011;17169;50.966;11.038;2024-01-06T15:52:03;11.38;;;4.43;;
30380;SDS011;17169;50.966;11.038;2024-01-06T15:55:08;12.88;;;4.50;;
30380;SDS011;17169;50.966;11.038;2024-01-06T15:58:10;10.98;;;4.65;;
30380;SDS011;17169;50.966;11.038;2024-01-06T16:01:13;8.75;;;4.18;;
30380;SDS011;17169;50.966;11.038;2024-01-06T16:04:16;9.35;;;4.43;;
30380;SDS011;17169;50.966;11.038;2024-01-06T16:07:19;11.93;;;4.60;;
30380;SDS011;17169;50.966;11.038;2024-01-06T16:10:23;9.55;;;4.05;;
30380;SDS011;17169;50.966;11.038;2024-01-06T16:13:25;7.93;;;4.53;;
30380;SDS011;17169;50.966;11.038;2024-01-06T16:16:28;8.38;;;4.05;;
30380;SDS011;17169;50.966;11.038;2024-01-06T16:19:30;12.32;;;3.67;;
30380;SDS011;17169;50.966;11.038;2024-01-06T16:22:34;11.25;;;4.65;;
30380;SDS011;17169;50.966;11.038;2024-01-06T16:25:36;13.52;;;4.60;;
30380;SDS011;17169;50.966;11.038;2024-01-06T16:28:39;7.85;;;4.30;;
30380;SDS011;17169;50.966;11.038;2024-01-06T16:31:42;14.48;;;5.90;;
30380;SDS011;17169;50.966;11.038;2024-01-06T16:34:44;11.75;;;4.88;;
30380;SDS011;17169;50.966;11.038;2024-01-06T16:37:49;14.32;;;5.63;;
30380;SDS011;17169;50.966;11.038;2024-01-06T16:40:52;10.40;;;5.10;;
30380;SDS011;17169;50.966;11.038;2024-01-06T16:43:54;13.10;;;5.55;;
30380;SDS011;17169;50.966;11.038;2024-01-06T16:46:56;16.05;;;6.35;;
30380;SDS011;17169;50.966;11.038;2024-01-06T16:49:59;14.45;;;6.25;;
30380;SDS011;17169;50.966;11.038;2024-01-06T16:53:03;11.40;;;5.45;;
30380;SDS011;17169;50.966;11.038;2024-01-06T16:56:06;11.48;;;6.20;;
30380;SDS011;17169;50.966;11.038;2024-01-06T16:59:10;14.80;;;5.82;;
30380;SDS011;17169;50.966;11.038;2024-01-06T17:02:13;10.57;;;5.32;;
30380;SDS011;17169;50.966;11.038;2024-01-06T17:05:16;13.07;;;5.40;;
30380;SDS011;17169;50.966;11.038;2024-01-06T17:08:20;12.05;;;6.38;;
30380;SDS011;17169;50.966;11.038;2024-01-06T17:11:22;13.15;;;6.45;;
30380;SDS011;17169;50.966;11.038;2024-01-06T17:14:25;11.63;;;6.72;;
30380;SDS011;17169;50.966;11.038;2024-01-06T17:17:28;15.07;;;7.95;;
30380;SDS011;17169;50.966;11.038;2024-01-06T17:20:30;14.18;;;8.63;;
30380;SDS011;17169;50.966;11.038;2024-01-06T17:23:38;16.92;;;8.75;;
30380;SDS011;17169;50.966;11.038;2024-01-06T17:26:40;15.13;;;9.98;;
30380;SDS011;17169;50.966;11.038;2024-01-06T17:29:43;19.15;;;9.82;;
30380;SDS011;17169;50.966;11.038;2024-01-06T17:32:45;15.35;;;10.00;;
30380;SDS011;17169;50.966;11.038;2024-01-06T17:35:48;22.73;;;11.35;;
30380;SDS011;17169;50.966;11.038;2024-01-06T17:38:52;16.80;;;11.75;;
30380;SDS011;17169;50.966;11.038;2024-01-06T17:41:54;20.77;;;12.57;;
30380;SDS011;17169;50.966;11.038;2024-01-06T17:44:56;23.67;;;14.88;;
30380;SDS011;17169;50.966;11.038;2024-01-06T17:47:59;24.70;;;13.15;;
30380;SDS011;17169;50.966;11.038;2024-01-06T17:51:01;26.58;;;14.10;;
30380;SDS011;17169;50.966;11.038;2024-01-06T17:54:05;24.58;;;14.88;;
30380;SDS011;17169;50.966;11.038;2024-01-06T17:57:07;29.73;;;16.40;;
30380;SDS011;17169;50.966;11.038;2024-01-06T18:00:16;31.20;;;17.05;;
30380;SDS011;17169;50.966;11.038;2024-01-06T18:03:19;31.13;;;18.35;;